sensor_id;sensor_type;location;lat;lon;timestamp;temperature;humidity
15131;DHT22;7666;50.920;4.628;2023-01-29T00:00:38;-0.70;99.90
15131;DHT22;7666;50.920;4.628;2023-01-29T00:03:24;-0.90;99.90
15131;DHT22;7666;50.920;4.628;2023-01-29T00:06:10;-1.00;99.90
15131;DHT22;7666;50.920;4.628;2023-01-29T00:08:56;-1.00;99.90
15131;DHT22;7666;50.920;4.628;2023-01-29T00:11:42;-1.00;99.90
15131;DHT22;7666;50.920;4.628;2023-01-29T00:14:28;-1.00;99.90
15131;DHT22;7666;50.920;4.628;2023-01-29T00:17:14;-1.00;99.90
15131;DHT22;7666;50.920;4.628;2023-01-29T00:20:00;-1.00;99.90
15131;DHT22;7666;50.920;4.628;2023-01-29T00:22:46;-1.00;99.90
15131;DHT22;7666;50.920;4.628;2023-01-29T00:25:32;-1.00;99.90
15131;DHT22;7666;50.920;4.628;2023-01-29T00:28:18;-1.00;99.90
15131;DHT22;7666;50.920;4.628;2023-01-29T00:31:21;-0.90;99.90
15131;DHT22;7666;50.920;4.628;2023-01-29T00:34:07;-1.10;99.90
15131;DHT22;7666;50.920;4.628;2023-01-29T00:36:53;-1.10;99.90
15131;DHT22;7666;50.920;4.628;2023-01-29T00:39:49;-1.10;99.90
15131;DHT22;7666;50.920;4.628;2023-01-29T00:42:35;-1.20;99.90
15131;DHT22;7666;50.920;4.628;2023-01-29T00:45:40;-1.20;99.90
15131;DHT22;7666;50.920;4.628;2023-01-29T00:48:26;-1.20;99.90
15131;DHT22;7666;50.920;4.628;2023-01-29T00:51:12;-1.10;99.90
15131;DHT22;7666;50.920;4.628;2023-01-29T00:53:58;-1.10;99.90
15131;DHT22;7666;50.920;4.628;2023-01-29T00:56:44;-1.10;99.90
15131;DHT22;7666;50.920;4.628;2023-01-29T00:59:30;-0.90;99.90
15131;DHT22;7666;50.920;4.628;2023-01-29T01:02:16;-1.10;99.90
15131;DHT22;7666;50.920;4.628;2023-01-29T01:05:22;-1.20;99.90
15131;DHT22;7666;50.920;4.628;2023-01-29T01:08:09;-1.10;99.90
15131;DHT22;7666;50.920;4.628;2023-01-29T01:11:13;-1.30;99.90
15131;DHT22;7666;50.920;4.628;2023-01-29T01:13:59;-1.10;99.90
15131;DHT22;7666;50.920;4.628;2023-01-29T01:16:47;-1.10;99.90
15131;DHT22;7666;50.920;4.628;2023-01-29T01:19:34;-1.10;99.90
15131;DHT22;7666;50.920;4.628;2023-01-29T01:22:20;-1.10;99.90
15131;DHT22;7666;50.920;4.628;2023-01-29T01:25:06;-1.20;99.90
15131;DHT22;7666;50.920;4.628;2023-01-29T01:27:56;-1.10;99.90
15131;DHT22;7666;50.920;4.628;2023-01-29T01:30:42;-1.10;99.90
15131;DHT22;7666;50.920;4.628;2023-01-29T01:33:28;-1.10;99.90
15131;DHT22;7666;50.920;4.628;2023-01-29T01:36:14;-1.10;99.90
15131;DHT22;7666;50.920;4.628;2023-01-29T01:39:00;-1.10;99.90
15131;DHT22;7666;50.920;4.628;2023-01-29T01:41:46;-1.10;99.90
15131;DHT22;7666;50.920;4.628;2023-01-29T01:45:00;-1.10;99.90
15131;DHT22;7666;50.920;4.628;2023-01-29T01:47:55;-1.20;99.90
15131;DHT22;7666;50.920;4.628;2023-01-29T01:50:50;-1.20;99.90
15131;DHT22;7666;50.920;4.628;2023-01-29T01:53:44;-1.20;99.90
15131;DHT22;7666;50.920;4.628;2023-01-29T01:56:39;-1.30;99.90
15131;DHT22;7666;50.920;4.628;2023-01-29T01:59:25;-1.20;99.90
15131;DHT22;7666;50.920;4.628;2023-01-29T02:02:12;-1.20;99.90
15131;DHT22;7666;50.920;4.628;2023-01-29T02:05:17;-1.20;99.90
15131;DHT22;7666;50.920;4.628;2023-01-29T02:08:50;-1.20;99.90
15131;DHT22;7666;50.920;4.628;2023-01-29T02:11:52;-1.20;99.90
15131;DHT22;7666;50.920;4.628;2023-01-29T02:14:39;-1.30;99.90
15131;DHT22;7666;50.920;4.628;2023-01-29T02:17:26;-1.40;99.90
15131;DHT22;7666;50.920;4.628;2023-01-29T02:20:19;-1.50;99.90
15131;DHT22;7666;50.920;4.628;2023-01-29T02:26:49;-1.50;99.90
15131;DHT22;7666;50.920;4.628;2023-01-29T02:36:08;-1.70;99.90
15131;DHT22;7666;50.920;4.628;2023-01-29T02:42:00;-1.70;99.90
15131;DHT22;7666;50.920;4.628;2023-01-29T02:44:54;-1.70;99.90
15131;DHT22;7666;50.920;4.628;2023-01-29T02:50:56;-1.70;99.90
15131;DHT22;7666;50.920;4.628;2023-01-29T02:54:20;-1.70;99.90
15131;DHT22;7666;50.920;4.628;2023-01-29T02:57:03;-1.70;99.90
15131;DHT22;7666;50.920;4.628;2023-01-29T02:59:51;-1.70;99.90
15131;DHT22;7666;50.920;4.628;2023-01-29T03:02:47;-1.70;99.90
15131;DHT22;7666;50.920;4.628;2023-01-29T03:05:50;-1.80;99.90
15131;DHT22;7666;50.920;4.628;2023-01-29T03:08:46;-1.70;99.90
15131;DHT22;7666;50.920;4.628;2023-01-29T03:11:40;-1.60;99.90
15131;DHT22;7666;50.920;4.628;2023-01-29T03:14:37;-1.70;99.90
15131;DHT22;7666;50.920;4.628;2023-01-29T03:17:53;-1.80;99.90
15131;DHT22;7666;50.920;4.628;2023-01-29T03:20:45;-1.80;99.90
15131;DHT22;7666;50.920;4.628;2023-01-29T03:23:34;-1.80;99.90
15131;DHT22;7666;50.920;4.628;2023-01-29T03:26:41;-1.80;99.90
15131;DHT22;7666;50.920;4.628;2023-01-29T03:29:48;-1.70;99.90
15131;DHT22;7666;50.920;4.628;2023-01-29T03:32:54;-1.70;99.90
15131;DHT22;7666;50.920;4.628;2023-01-29T03:35:46;-1.70;99.90
15131;DHT22;7666;50.920;4.628;2023-01-29T03:38:34;-1.50;99.90
15131;DHT22;7666;50.920;4.628;2023-01-29T03:41:39;-1.60;99.90
15131;DHT22;7666;50.920;4.628;2023-01-29T03:47:45;-1.60;99.90
15131;DHT22;7666;50.920;4.628;2023-01-29T03:53:41;-1.70;99.90
15131;DHT22;7666;50.920;4.628;2023-01-29T03:59:40;-1.70;99.90
15131;DHT22;7666;50.920;4.628;2023-01-29T04:02:35;-1.70;99.90
15131;DHT22;7666;50.920;4.628;2023-01-29T04:05:26;-1.70;99.90
15131;DHT22;7666;50.920;4.628;2023-01-29T04:08:22;-1.70;99.90
15131;DHT22;7666;50.920;4.628;2023-01-29T04:11:13;-1.70;99.90
15131;DHT22;7666;50.920;4.628;2023-01-29T04:14:00;-1.70;99.90
15131;DHT22;7666;50.920;4.628;2023-01-29T04:16:51;-1.70;99.90
15131;DHT22;7666;50.920;4.628;2023-01-29T04:19:38;-1.70;99.90
15131;DHT22;7666;50.920;4.628;2023-01-29T04:22:30;-1.70;99.90
15131;DHT22;7666;50.920;4.628;2023-01-29T04:25:22;-1.70;99.90
15131;DHT22;7666;50.920;4.628;2023-01-29T04:28:21;-1.70;99.90
15131;DHT22;7666;50.920;4.628;2023-01-29T04:31:10;-1.70;99.90
15131;DHT22;7666;50.920;4.628;2023-01-29T04:34:24;-1.60;99.90
15131;DHT22;7666;50.920;4.628;2023-01-29T04:37:34;-1.60;99.90
15131;DHT22;7666;50.920;4.628;2023-01-29T04:40:41;-1.60;99.90
15131;DHT22;7666;50.920;4.628;2023-01-29T04:46:47;-1.50;99.90
15131;DHT22;7666;50.920;4.628;2023-01-29T04:53:06;-1.40;99.90
15131;DHT22;7666;50.920;4.628;2023-01-29T04:59:06;-1.30;99.90
15131;DHT22;7666;50.920;4.628;2023-01-29T05:01:52;-1.30;99.90
15131;DHT22;7666;50.920;4.628;2023-01-29T05:04:40;-1.20;99.90
15131;DHT22;7666;50.920;4.628;2023-01-29T05:07:28;-1.10;99.90
15131;DHT22;7666;50.920;4.628;2023-01-29T05:10:18;-1.10;99.90
15131;DHT22;7666;50.920;4.628;2023-01-29T05:13:08;-1.00;99.90
15131;DHT22;7666;50.920;4.628;2023-01-29T05:16:01;-0.90;99.90
15131;DHT22;7666;50.920;4.628;2023-01-29T05:18:49;-0.80;99.90
15131;DHT22;7666;50.920;4.628;2023-01-29T05:21:35;-0.80;99.90
15131;DHT22;7666;50.920;4.628;2023-01-29T05:24:23;-0.70;99.90
15131;DHT22;7666;50.920;4.628;2023-01-29T05:27:17;-0.70;99.90
15131;DHT22;7666;50.920;4.628;2023-01-29T05:30:23;-0.60;99.90
15131;DHT22;7666;50.920;4.628;2023-01-29T05:33:23;-0.60;99.90
15131;DHT22;7666;50.920;4.628;2023-01-29T05:36:09;-0.60;99.90
15131;DHT22;7666;50.920;4.628;2023-01-29T05:38:55;-0.60;99.90
15131;DHT22;7666;50.920;4.628;2023-01-29T05:41:42;-0.50;99.90
15131;DHT22;7666;50.920;4.628;2023-01-29T05:44:28;-0.50;99.90
15131;DHT22;7666;50.920;4.628;2023-01-29T05:47:18;-0.50;99.90
15131;DHT22;7666;50.920;4.628;2023-01-29T05:50:04;-0.40;99.90
15131;DHT22;7666;50.920;4.628;2023-01-29T05:53:00;-0.30;99.90
15131;DHT22;7666;50.920;4.628;2023-01-29T05:55:47;-0.30;99.90
15131;DHT22;7666;50.920;4.628;2023-01-29T05:58:33;-0.20;99.90
15131;DHT22;7666;50.920;4.628;2023-01-29T06:01:22;-0.10;99.90
15131;DHT22;7666;50.920;4.628;2023-01-29T06:04:08;-0.10;99.90
15131;DHT22;7666;50.920;4.628;2023-01-29T06:06:54;0.00;99.90
15131;DHT22;7666;50.920;4.628;2023-01-29T06:09:40;0.00;99.90
15131;DHT22;7666;50.920;4.628;2023-01-29T06:12:26;0.00;99.90
15131;DHT22;7666;50.920;4.628;2023-01-29T06:15:12;0.10;99.90
15131;DHT22;7666;50.920;4.628;2023-01-29T06:18:02;0.10;99.90
15131;DHT22;7666;50.920;4.628;2023-01-29T06:20:48;0.10;99.90
15131;DHT22;7666;50.920;4.628;2023-01-29T06:23:34;0.10;99.90
15131;DHT22;7666;50.920;4.628;2023-01-29T06:26:20;0.30;99.90
15131;DHT22;7666;50.920;4.628;2023-01-29T06:29:06;0.20;99.90
15131;DHT22;7666;50.920;4.628;2023-01-29T06:31:52;0.30;99.90
15131;DHT22;7666;50.920;4.628;2023-01-29T06:34:38;0.30;99.90
15131;DHT22;7666;50.920;4.628;2023-01-29T06:37:24;0.30;99.90
15131;DHT22;7666;50.920;4.628;2023-01-29T06:40:11;0.30;99.90
15131;DHT22;7666;50.920;4.628;2023-01-29T06:42:59;0.30;99.90
15131;DHT22;7666;50.920;4.628;2023-01-29T06:45:56;0.30;99.90
15131;DHT22;7666;50.920;4.628;2023-01-29T06:48:42;0.40;99.90
15131;DHT22;7666;50.920;4.628;2023-01-29T06:51:28;0.40;99.90
15131;DHT22;7666;50.920;4.628;2023-01-29T06:54:14;0.40;99.90
15131;DHT22;7666;50.920;4.628;2023-01-29T06:57:00;0.40;99.90
15131;DHT22;7666;50.920;4.628;2023-01-29T06:59:46;0.40;99.90
15131;DHT22;7666;50.920;4.628;2023-01-29T07:02:32;0.40;99.90
15131;DHT22;7666;50.920;4.628;2023-01-29T07:05:18;0.40;99.90
15131;DHT22;7666;50.920;4.628;2023-01-29T07:08:04;0.40;99.90
15131;DHT22;7666;50.920;4.628;2023-01-29T07:10:50;0.40;99.90
15131;DHT22;7666;50.920;4.628;2023-01-29T07:13:36;0.30;99.90
15131;DHT22;7666;50.920;4.628;2023-01-29T07:16:22;0.50;99.90
15131;DHT22;7666;50.920;4.628;2023-01-29T07:19:09;0.50;99.90
15131;DHT22;7666;50.920;4.628;2023-01-29T07:21:55;0.50;99.90
15131;DHT22;7666;50.920;4.628;2023-01-29T07:24:41;0.50;99.90
15131;DHT22;7666;50.920;4.628;2023-01-29T07:27:27;0.50;99.90
15131;DHT22;7666;50.920;4.628;2023-01-29T07:30:13;0.50;99.90
15131;DHT22;7666;50.920;4.628;2023-01-29T07:33:04;0.50;99.90
15131;DHT22;7666;50.920;4.628;2023-01-29T07:35:51;0.60;99.90
15131;DHT22;7666;50.920;4.628;2023-01-29T07:38:37;0.60;99.90
15131;DHT22;7666;50.920;4.628;2023-01-29T07:41:23;0.60;99.90
15131;DHT22;7666;50.920;4.628;2023-01-29T07:44:09;0.60;99.90
15131;DHT22;7666;50.920;4.628;2023-01-29T07:46:55;0.70;99.90
15131;DHT22;7666;50.920;4.628;2023-01-29T07:49:41;0.70;99.90
15131;DHT22;7666;50.920;4.628;2023-01-29T07:52:29;0.70;99.90
15131;DHT22;7666;50.920;4.628;2023-01-29T07:55:16;0.80;99.90
15131;DHT22;7666;50.920;4.628;2023-01-29T07:58:02;0.70;99.90
15131;DHT22;7666;50.920;4.628;2023-01-29T08:00:48;0.70;99.90
15131;DHT22;7666;50.920;4.628;2023-01-29T08:03:35;0.70;99.90
15131;DHT22;7666;50.920;4.628;2023-01-29T08:06:21;0.70;99.90
15131;DHT22;7666;50.920;4.628;2023-01-29T08:09:07;0.70;99.90
15131;DHT22;7666;50.920;4.628;2023-01-29T08:11:53;0.80;99.90
15131;DHT22;7666;50.920;4.628;2023-01-29T08:14:39;0.80;99.90
15131;DHT22;7666;50.920;4.628;2023-01-29T08:17:25;0.80;99.90
15131;DHT22;7666;50.920;4.628;2023-01-29T08:20:11;0.80;99.90
15131;DHT22;7666;50.920;4.628;2023-01-29T08:23:01;0.90;99.90
15131;DHT22;7666;50.920;4.628;2023-01-29T08:25:48;0.90;99.90
15131;DHT22;7666;50.920;4.628;2023-01-29T08:28:34;1.00;99.90
15131;DHT22;7666;50.920;4.628;2023-01-29T08:31:20;0.90;99.90
15131;DHT22;7666;50.920;4.628;2023-01-29T08:34:06;0.90;99.90
15131;DHT22;7666;50.920;4.628;2023-01-29T08:36:52;0.90;99.90
15131;DHT22;7666;50.920;4.628;2023-01-29T08:39:38;0.90;99.90
15131;DHT22;7666;50.920;4.628;2023-01-29T08:42:24;0.90;99.90
15131;DHT22;7666;50.920;4.628;2023-01-29T08:45:10;0.90;99.90
15131;DHT22;7666;50.920;4.628;2023-01-29T08:47:56;0.90;99.90
15131;DHT22;7666;50.920;4.628;2023-01-29T08:50:42;1.00;99.90
15131;DHT22;7666;50.920;4.628;2023-01-29T08:53:29;1.00;99.90
15131;DHT22;7666;50.920;4.628;2023-01-29T08:56:15;1.00;99.90
15131;DHT22;7666;50.920;4.628;2023-01-29T08:59:01;1.10;99.90
15131;DHT22;7666;50.920;4.628;2023-01-29T09:01:47;1.10;99.90
15131;DHT22;7666;50.920;4.628;2023-01-29T09:04:33;1.20;99.90
15131;DHT22;7666;50.920;4.628;2023-01-29T09:07:19;1.20;99.90
15131;DHT22;7666;50.920;4.628;2023-01-29T09:10:06;1.20;99.90
15131;DHT22;7666;50.920;4.628;2023-01-29T09:12:53;1.30;99.90
15131;DHT22;7666;50.920;4.628;2023-01-29T09:15:39;1.30;99.90
15131;DHT22;7666;50.920;4.628;2023-01-29T09:18:25;1.30;99.90
15131;DHT22;7666;50.920;4.628;2023-01-29T09:21:11;1.40;99.90
15131;DHT22;7666;50.920;4.628;2023-01-29T09:23:57;1.40;99.90
15131;DHT22;7666;50.920;4.628;2023-01-29T09:26:42;1.40;99.90
15131;DHT22;7666;50.920;4.628;2023-01-29T09:29:28;1.40;99.90
15131;DHT22;7666;50.920;4.628;2023-01-29T09:32:14;1.50;99.90
15131;DHT22;7666;50.920;4.628;2023-01-29T09:35:00;1.60;99.90
15131;DHT22;7666;50.920;4.628;2023-01-29T09:37:47;1.60;99.90
15131;DHT22;7666;50.920;4.628;2023-01-29T09:43:49;1.60;99.90
15131;DHT22;7666;50.920;4.628;2023-01-29T09:46:44;1.60;99.90
15131;DHT22;7666;50.920;4.628;2023-01-29T09:49:38;1.70;99.90
15131;DHT22;7666;50.920;4.628;2023-01-29T09:52:31;1.70;99.90
15131;DHT22;7666;50.920;4.628;2023-01-29T09:56:00;1.70;99.90
15131;DHT22;7666;50.920;4.628;2023-01-29T09:58:40;1.80;99.90
15131;DHT22;7666;50.920;4.628;2023-01-29T10:01:43;1.90;99.90
15131;DHT22;7666;50.920;4.628;2023-01-29T10:08:12;1.90;99.90
15131;DHT22;7666;50.920;4.628;2023-01-29T10:11:13;1.90;99.90
15131;DHT22;7666;50.920;4.628;2023-01-29T10:24:15;2.10;99.90
15131;DHT22;7666;50.920;4.628;2023-01-29T10:27:02;2.10;99.90
15131;DHT22;7666;50.920;4.628;2023-01-29T10:29:56;2.10;99.90
15131;DHT22;7666;50.920;4.628;2023-01-29T10:32:43;2.10;99.90
15131;DHT22;7666;50.920;4.628;2023-01-29T10:35:42;2.10;99.90
15131;DHT22;7666;50.920;4.628;2023-01-29T10:38:50;2.20;99.90
15131;DHT22;7666;50.920;4.628;2023-01-29T10:48:34;2.20;99.90
15131;DHT22;7666;50.920;4.628;2023-01-29T10:54:56;2.30;99.90
15131;DHT22;7666;50.920;4.628;2023-01-29T11:00:50;2.30;99.90
15131;DHT22;7666;50.920;4.628;2023-01-29T11:03:37;2.30;99.90
15131;DHT22;7666;50.920;4.628;2023-01-29T11:06:31;2.30;99.90
15131;DHT22;7666;50.920;4.628;2023-01-29T11:09:28;2.30;99.90
15131;DHT22;7666;50.920;4.628;2023-01-29T11:12:24;2.30;99.90
15131;DHT22;7666;50.920;4.628;2023-01-29T11:15:30;2.30;99.90
15131;DHT22;7666;50.920;4.628;2023-01-29T11:18:17;2.30;99.90
15131;DHT22;7666;50.920;4.628;2023-01-29T11:21:03;2.40;99.90
15131;DHT22;7666;50.920;4.628;2023-01-29T11:24:04;2.40;99.90
15131;DHT22;7666;50.920;4.628;2023-01-29T11:26:55;2.40;99.90
15131;DHT22;7666;50.920;4.628;2023-01-29T11:29:44;2.40;99.90
15131;DHT22;7666;50.920;4.628;2023-01-29T11:32:33;2.50;99.90
15131;DHT22;7666;50.920;4.628;2023-01-29T11:35:22;2.50;99.90
15131;DHT22;7666;50.920;4.628;2023-01-29T11:38:22;2.60;99.90
15131;DHT22;7666;50.920;4.628;2023-01-29T11:41:16;2.60;99.90
15131;DHT22;7666;50.920;4.628;2023-01-29T11:44:17;2.70;99.90
15131;DHT22;7666;50.920;4.628;2023-01-29T11:47:26;2.70;99.90
15131;DHT22;7666;50.920;4.628;2023-01-29T11:50:20;2.80;99.90
15131;DHT22;7666;50.920;4.628;2023-01-29T11:53:25;2.90;99.90
15131;DHT22;7666;50.920;4.628;2023-01-29T11:56:19;2.90;99.90
15131;DHT22;7666;50.920;4.628;2023-01-29T11:59:25;3.00;99.90
15131;DHT22;7666;50.920;4.628;2023-01-29T12:02:20;3.10;99.90
15131;DHT22;7666;50.920;4.628;2023-01-29T12:05:16;3.10;99.90
15131;DHT22;7666;50.920;4.628;2023-01-29T12:08:02;3.20;99.90
15131;DHT22;7666;50.920;4.628;2023-01-29T12:10:48;3.30;99.90
15131;DHT22;7666;50.920;4.628;2023-01-29T12:13:35;3.40;99.90
15131;DHT22;7666;50.920;4.628;2023-01-29T12:28:49;3.70;99.90
15131;DHT22;7666;50.920;4.628;2023-01-29T12:31:58;3.70;99.90
15131;DHT22;7666;50.920;4.628;2023-01-29T12:35:02;3.80;99.90
15131;DHT22;7666;50.920;4.628;2023-01-29T12:37:55;3.90;99.90
15131;DHT22;7666;50.920;4.628;2023-01-29T12:43:42;4.00;99.90
15131;DHT22;7666;50.920;4.628;2023-01-29T12:46:49;4.00;99.90
15131;DHT22;7666;50.920;4.628;2023-01-29T12:49:38;4.10;99.90
15131;DHT22;7666;50.920;4.628;2023-01-29T12:55:27;4.10;99.90
15131;DHT22;7666;50.920;4.628;2023-01-29T12:58:29;4.20;99.90
15131;DHT22;7666;50.920;4.628;2023-01-29T13:04:18;4.20;99.90
15131;DHT22;7666;50.920;4.628;2023-01-29T13:07:16;4.20;99.90
15131;DHT22;7666;50.920;4.628;2023-01-29T13:10:13;4.20;99.90
15131;DHT22;7666;50.920;4.628;2023-01-29T13:13:15;4.20;99.90
15131;DHT22;7666;50.920;4.628;2023-01-29T13:16:08;4.10;99.90
15131;DHT22;7666;50.920;4.628;2023-01-29T13:19:12;4.20;99.90
15131;DHT22;7666;50.920;4.628;2023-01-29T13:22:02;4.20;99.90
15131;DHT22;7666;50.920;4.628;2023-01-29T13:24:50;4.20;99.90
15131;DHT22;7666;50.920;4.628;2023-01-29T13:27:38;4.20;99.90
15131;DHT22;7666;50.920;4.628;2023-01-29T13:30:26;4.20;99.90
15131;DHT22;7666;50.920;4.628;2023-01-29T13:33:21;4.20;99.90
15131;DHT22;7666;50.920;4.628;2023-01-29T13:36:14;4.30;99.90
15131;DHT22;7666;50.920;4.628;2023-01-29T13:39:04;4.30;99.90
15131;DHT22;7666;50.920;4.628;2023-01-29T13:41:51;4.30;99.90
15131;DHT22;7666;50.920;4.628;2023-01-29T13:44:38;4.30;99.90
15131;DHT22;7666;50.920;4.628;2023-01-29T13:47:28;4.30;99.90
15131;DHT22;7666;50.920;4.628;2023-01-29T13:50:18;4.30;99.90
15131;DHT22;7666;50.920;4.628;2023-01-29T13:53:06;4.30;99.90
15131;DHT22;7666;50.920;4.628;2023-01-29T13:55:54;4.30;99.90
15131;DHT22;7666;50.920;4.628;2023-01-29T14:04:33;4.30;99.90
15131;DHT22;7666;50.920;4.628;2023-01-29T14:10:31;4.30;99.90
15131;DHT22;7666;50.920;4.628;2023-01-29T14:18:57;4.30;99.90
15131;DHT22;7666;50.920;4.628;2023-01-29T14:21:48;4.30;99.90
15131;DHT22;7666;50.920;4.628;2023-01-29T14:24:34;4.30;99.90
15131;DHT22;7666;50.920;4.628;2023-01-29T14:27:23;4.30;99.90
15131;DHT22;7666;50.920;4.628;2023-01-29T14:30:16;4.30;99.90
15131;DHT22;7666;50.920;4.628;2023-01-29T14:33:03;4.30;99.90
15131;DHT22;7666;50.920;4.628;2023-01-29T14:35:52;4.30;99.90
15131;DHT22;7666;50.920;4.628;2023-01-29T14:38:49;4.30;99.90
15131;DHT22;7666;50.920;4.628;2023-01-29T14:41:36;4.30;99.90
15131;DHT22;7666;50.920;4.628;2023-01-29T14:56:32;4.30;99.90
15131;DHT22;7666;50.920;4.628;2023-01-29T14:59:22;4.30;99.90
15131;DHT22;7666;50.920;4.628;2023-01-29T15:02:36;4.30;99.90
15131;DHT22;7666;50.920;4.628;2023-01-29T15:05:30;4.30;99.90
15131;DHT22;7666;50.920;4.628;2023-01-29T15:11:48;4.30;99.90
15131;DHT22;7666;50.920;4.628;2023-01-29T15:14:42;4.30;99.90
15131;DHT22;7666;50.920;4.628;2023-01-29T15:20:36;4.30;99.90
15131;DHT22;7666;50.920;4.628;2023-01-29T15:23:31;4.30;99.90
15131;DHT22;7666;50.920;4.628;2023-01-29T15:26:22;4.30;99.90
15131;DHT22;7666;50.920;4.628;2023-01-29T15:29:23;4.30;99.90
15131;DHT22;7666;50.920;4.628;2023-01-29T15:32:27;4.30;99.90
15131;DHT22;7666;50.920;4.628;2023-01-29T15:35:38;4.30;99.90
15131;DHT22;7666;50.920;4.628;2023-01-29T15:38:25;4.30;99.90
15131;DHT22;7666;50.920;4.628;2023-01-29T15:41:20;4.30;99.90
15131;DHT22;7666;50.920;4.628;2023-01-29T15:44:13;4.30;99.90
15131;DHT22;7666;50.920;4.628;2023-01-29T15:47:01;4.30;99.90
15131;DHT22;7666;50.920;4.628;2023-01-29T15:49:47;4.20;99.90
15131;DHT22;7666;50.920;4.628;2023-01-29T15:52:34;4.20;99.90
15131;DHT22;7666;50.920;4.628;2023-01-29T15:55:21;4.20;99.90
15131;DHT22;7666;50.920;4.628;2023-01-29T15:58:14;4.20;99.90
15131;DHT22;7666;50.920;4.628;2023-01-29T16:01:02;4.10;99.90
15131;DHT22;7666;50.920;4.628;2023-01-29T16:03:49;4.20;99.90
15131;DHT22;7666;50.920;4.628;2023-01-29T16:06:37;4.20;99.90
15131;DHT22;7666;50.920;4.628;2023-01-29T16:09:25;4.10;99.90
15131;DHT22;7666;50.920;4.628;2023-01-29T16:12:12;4.10;99.90
15131;DHT22;7666;50.920;4.628;2023-01-29T16:15:02;4.10;99.90
15131;DHT22;7666;50.920;4.628;2023-01-29T16:17:48;4.10;99.90
15131;DHT22;7666;50.920;4.628;2023-01-29T16:20:42;4.10;99.90
15131;DHT22;7666;50.920;4.628;2023-01-29T16:23:34;4.10;99.90
15131;DHT22;7666;50.920;4.628;2023-01-29T16:26:32;4.10;99.90
15131;DHT22;7666;50.920;4.628;2023-01-29T16:29:21;4.00;99.90
15131;DHT22;7666;50.920;4.628;2023-01-29T16:32:08;4.00;99.90
15131;DHT22;7666;50.920;4.628;2023-01-29T16:34:58;4.00;99.90
15131;DHT22;7666;50.920;4.628;2023-01-29T16:37:49;4.00;99.90
15131;DHT22;7666;50.920;4.628;2023-01-29T16:40:36;4.00;99.90
15131;DHT22;7666;50.920;4.628;2023-01-29T16:46:26;3.90;99.90
15131;DHT22;7666;50.920;4.628;2023-01-29T16:52:27;3.90;99.90
15131;DHT22;7666;50.920;4.628;2023-01-29T16:55:20;3.90;99.90
15131;DHT22;7666;50.920;4.628;2023-01-29T16:58:15;3.90;99.90
15131;DHT22;7666;50.920;4.628;2023-01-29T17:01:06;3.90;99.90
15131;DHT22;7666;50.920;4.628;2023-01-29T17:03:59;3.90;99.90
15131;DHT22;7666;50.920;4.628;2023-01-29T17:06:55;3.90;99.90
15131;DHT22;7666;50.920;4.628;2023-01-29T17:09:42;3.80;99.90
15131;DHT22;7666;50.920;4.628;2023-01-29T17:12:29;3.90;99.90
15131;DHT22;7666;50.920;4.628;2023-01-29T17:15:42;3.80;99.90
15131;DHT22;7666;50.920;4.628;2023-01-29T17:18:29;3.80;99.90
15131;DHT22;7666;50.920;4.628;2023-01-29T17:21:15;3.80;99.90
15131;DHT22;7666;50.920;4.628;2023-01-29T17:24:01;3.80;99.90
15131;DHT22;7666;50.920;4.628;2023-01-29T17:26:47;3.80;99.90
15131;DHT22;7666;50.920;4.628;2023-01-29T17:29:33;3.80;99.90
15131;DHT22;7666;50.920;4.628;2023-01-29T17:32:19;3.80;99.90
15131;DHT22;7666;50.920;4.628;2023-01-29T17:35:06;3.80;99.90
15131;DHT22;7666;50.920;4.628;2023-01-29T17:37:52;3.80;99.90
15131;DHT22;7666;50.920;4.628;2023-01-29T17:43:41;3.80;99.90
15131;DHT22;7666;50.920;4.628;2023-01-29T17:46:30;3.90;99.90
15131;DHT22;7666;50.920;4.628;2023-01-29T17:49:26;3.90;99.90
15131;DHT22;7666;50.920;4.628;2023-01-29T17:52:12;3.80;99.90
15131;DHT22;7666;50.920;4.628;2023-01-29T17:54:58;3.80;99.90
15131;DHT22;7666;50.920;4.628;2023-01-29T17:57:44;3.80;99.90
15131;DHT22;7666;50.920;4.628;2023-01-29T18:00:30;3.80;99.90
15131;DHT22;7666;50.920;4.628;2023-01-29T18:03:16;3.80;99.90
15131;DHT22;7666;50.920;4.628;2023-01-29T18:06:03;3.80;99.90
15131;DHT22;7666;50.920;4.628;2023-01-29T18:08:51;3.80;99.90
15131;DHT22;7666;50.920;4.628;2023-01-29T18:11:37;3.80;99.90
15131;DHT22;7666;50.920;4.628;2023-01-29T18:14:23;3.80;99.90
15131;DHT22;7666;50.920;4.628;2023-01-29T18:17:09;3.80;99.90
15131;DHT22;7666;50.920;4.628;2023-01-29T18:19:55;3.80;99.90
15131;DHT22;7666;50.920;4.628;2023-01-29T18:22:42;3.80;99.90
15131;DHT22;7666;50.920;4.628;2023-01-29T18:25:29;3.80;99.90
15131;DHT22;7666;50.920;4.628;2023-01-29T18:28:16;3.80;99.90
15131;DHT22;7666;50.920;4.628;2023-01-29T18:31:03;3.80;99.90
15131;DHT22;7666;50.920;4.628;2023-01-29T18:33:49;3.80;99.90
15131;DHT22;7666;50.920;4.628;2023-01-29T18:36:35;3.70;99.90
15131;DHT22;7666;50.920;4.628;2023-01-29T18:39:21;3.70;99.90
15131;DHT22;7666;50.920;4.628;2023-01-29T18:42:07;3.70;99.90
15131;DHT22;7666;50.920;4.628;2023-01-29T18:44:53;3.70;99.90
15131;DHT22;7666;50.920;4.628;2023-01-29T18:47:39;3.70;99.90
15131;DHT22;7666;50.920;4.628;2023-01-29T18:50:25;3.70;99.90
15131;DHT22;7666;50.920;4.628;2023-01-29T18:53:12;3.70;99.90
15131;DHT22;7666;50.920;4.628;2023-01-29T18:56:03;3.70;99.90
15131;DHT22;7666;50.920;4.628;2023-01-29T18:58:53;3.70;99.90
15131;DHT22;7666;50.920;4.628;2023-01-29T19:01:39;3.70;99.90
15131;DHT22;7666;50.920;4.628;2023-01-29T19:04:25;3.70;99.90
15131;DHT22;7666;50.920;4.628;2023-01-29T19:07:13;3.70;99.90
15131;DHT22;7666;50.920;4.628;2023-01-29T19:09:59;3.80;99.90
15131;DHT22;7666;50.920;4.628;2023-01-29T19:12:47;3.80;99.90
15131;DHT22;7666;50.920;4.628;2023-01-29T19:15:33;3.80;99.90
15131;DHT22;7666;50.920;4.628;2023-01-29T19:18:19;3.80;99.90
15131;DHT22;7666;50.920;4.628;2023-01-29T19:21:11;3.80;99.90
15131;DHT22;7666;50.920;4.628;2023-01-29T19:23:57;3.80;99.90
15131;DHT22;7666;50.920;4.628;2023-01-29T19:26:43;3.80;99.90
15131;DHT22;7666;50.920;4.628;2023-01-29T19:29:29;3.80;99.90
15131;DHT22;7666;50.920;4.628;2023-01-29T19:32:15;3.80;99.90
15131;DHT22;7666;50.920;4.628;2023-01-29T19:35:01;3.80;99.90
15131;DHT22;7666;50.920;4.628;2023-01-29T19:37:47;3.80;99.90
15131;DHT22;7666;50.920;4.628;2023-01-29T19:40:33;3.90;99.90
15131;DHT22;7666;50.920;4.628;2023-01-29T19:43:20;3.90;99.90
15131;DHT22;7666;50.920;4.628;2023-01-29T19:46:06;3.90;99.90
15131;DHT22;7666;50.920;4.628;2023-01-29T19:48:52;3.90;99.90
15131;DHT22;7666;50.920;4.628;2023-01-29T19:51:39;3.90;99.90
15131;DHT22;7666;50.920;4.628;2023-01-29T19:54:26;3.90;99.90
15131;DHT22;7666;50.920;4.628;2023-01-29T19:57:12;3.90;99.90
15131;DHT22;7666;50.920;4.628;2023-01-29T19:59:59;3.90;99.90
15131;DHT22;7666;50.920;4.628;2023-01-29T20:02:45;3.90;99.90
15131;DHT22;7666;50.920;4.628;2023-01-29T20:05:34;3.90;99.90
15131;DHT22;7666;50.920;4.628;2023-01-29T20:08:20;3.90;99.90
15131;DHT22;7666;50.920;4.628;2023-01-29T20:11:08;3.90;99.90
15131;DHT22;7666;50.920;4.628;2023-01-29T20:13:57;3.90;99.90
15131;DHT22;7666;50.920;4.628;2023-01-29T20:16:43;3.90;99.90
15131;DHT22;7666;50.920;4.628;2023-01-29T20:19:29;4.00;99.90
15131;DHT22;7666;50.920;4.628;2023-01-29T20:22:15;4.00;99.90
15131;DHT22;7666;50.920;4.628;2023-01-29T20:25:01;4.00;99.90
15131;DHT22;7666;50.920;4.628;2023-01-29T20:27:47;4.00;99.90
15131;DHT22;7666;50.920;4.628;2023-01-29T20:30:33;4.00;99.90
15131;DHT22;7666;50.920;4.628;2023-01-29T20:33:20;4.00;99.90
15131;DHT22;7666;50.920;4.628;2023-01-29T20:36:08;4.00;99.90